sensor_id;sensor_type;location;lat;lon;timestamp;temperature;humidity
74873;HTU21D;68776;44.762;37.698;2023-10-13T00:00:07;7.39;63.87
74873;HTU21D;68776;44.762;37.698;2023-10-13T00:01:26;7.41;63.82
74873;HTU21D;68776;44.762;37.698;2023-10-13T00:02:27;7.41;63.84
74873;HTU21D;68776;44.762;37.698;2023-10-13T00:03:28;7.38;63.86
74873;HTU21D;68776;44.762;37.698;2023-10-13T00:04:32;7.38;63.85
74873;HTU21D;68776;44.762;37.698;2023-10-13T00:05:36;7.37;63.85
74873;HTU21D;68776;44.762;37.698;2023-10-13T00:06:38;7.37;63.90
74873;HTU21D;68776;44.762;37.698;2023-10-13T00:07:39;7.35;63.92
74873;HTU21D;68776;44.762;37.698;2023-10-13T00:08:40;7.34;63.92
74873;HTU21D;68776;44.762;37.698;2023-10-13T00:09:41;7.35;63.93
74873;HTU21D;68776;44.762;37.698;2023-10-13T00:10:43;7.35;63.92
74873;HTU21D;68776;44.762;37.698;2023-10-13T00:11:44;7.37;63.93
74873;HTU21D;68776;44.762;37.698;2023-10-13T00:12:45;7.38;63.92
74873;HTU21D;68776;44.762;37.698;2023-10-13T00:13:50;7.38;63.91
74873;HTU21D;68776;44.762;37.698;2023-10-13T00:14:51;7.38;63.90
74873;HTU21D;68776;44.762;37.698;2023-10-13T00:15:52;7.35;63.93
74873;HTU21D;68776;44.762;37.698;2023-10-13T00:16:53;7.35;63.96
74873;HTU21D;68776;44.762;37.698;2023-10-13T00:18:08;7.35;63.97
74873;HTU21D;68776;44.762;37.698;2023-10-13T00:19:13;7.33;63.98
74873;HTU21D;68776;44.762;37.698;2023-10-13T00:20:14;7.32;64.01
74873;HTU21D;68776;44.762;37.698;2023-10-13T00:21:29;7.33;63.99
74873;HTU21D;68776;44.762;37.698;2023-10-13T00:22:33;7.33;63.99
74873;HTU21D;68776;44.762;37.698;2023-10-13T00:23:34;7.34;63.98
74873;HTU21D;68776;44.762;37.698;2023-10-13T00:24:39;7.33;63.99
74873;HTU21D;68776;44.762;37.698;2023-10-13T00:25:43;7.34;63.97
74873;HTU21D;68776;44.762;37.698;2023-10-13T00:26:50;7.32;63.99
74873;HTU21D;68776;44.762;37.698;2023-10-13T00:27:54;7.30;64.02
74873;HTU21D;68776;44.762;37.698;2023-10-13T00:28:57;7.28;64.08
74873;HTU21D;68776;44.762;37.698;2023-10-13T00:30:08;7.28;64.10
74873;HTU21D;68776;44.762;37.698;2023-10-13T00:31:22;7.26;64.09
74873;HTU21D;68776;44.762;37.698;2023-10-13T00:32:24;7.25;64.12
74873;HTU21D;68776;44.762;37.698;2023-10-13T00:33:27;7.23;64.18
74873;HTU21D;68776;44.762;37.698;2023-10-13T00:34:28;7.25;64.20
74873;HTU21D;68776;44.762;37.698;2023-10-13T00:35:30;7.23;64.22
74873;HTU21D;68776;44.762;37.698;2023-10-13T00:36:38;7.24;64.23
74873;HTU21D;68776;44.762;37.698;2023-10-13T00:37:49;7.22;64.24
74873;HTU21D;68776;44.762;37.698;2023-10-13T00:38:53;7.22;64.24
74873;HTU21D;68776;44.762;37.698;2023-10-13T00:39:56;7.22;64.24
74873;HTU21D;68776;44.762;37.698;2023-10-13T00:40:58;7.22;64.27
74873;HTU21D;68776;44.762;37.698;2023-10-13T00:42:15;7.20;64.24
74873;HTU21D;68776;44.762;37.698;2023-10-13T00:43:22;7.19;64.26
74873;HTU21D;68776;44.762;37.698;2023-10-13T00:44:23;7.19;64.27
74873;HTU21D;68776;44.762;37.698;2023-10-13T00:45:38;7.17;64.27
74873;HTU21D;68776;44.762;37.698;2023-10-13T00:46:41;7.20;64.27
74873;HTU21D;68776;44.762;37.698;2023-10-13T00:47:45;7.19;64.27
74873;HTU21D;68776;44.762;37.698;2023-10-13T00:48:50;7.19;64.27
74873;HTU21D;68776;44.762;37.698;2023-10-13T00:49:56;7.19;64.29
74873;HTU21D;68776;44.762;37.698;2023-10-13T00:50:58;7.18;64.31
74873;HTU21D;68776;44.762;37.698;2023-10-13T00:52:09;7.18;64.30
74873;HTU21D;68776;44.762;37.698;2023-10-13T00:53:11;7.19;64.30
74873;HTU21D;68776;44.762;37.698;2023-10-13T00:54:13;7.19;64.28
74873;HTU21D;68776;44.762;37.698;2023-10-13T00:55:18;7.20;64.29
74873;HTU21D;68776;44.762;37.698;2023-10-13T00:56:24;7.20;64.29
74873;HTU21D;68776;44.762;37.698;2023-10-13T00:57:28;7.20;64.28
74873;HTU21D;68776;44.762;37.698;2023-10-13T00:58:33;7.20;64.30
74873;HTU21D;68776;44.762;37.698;2023-10-13T00:59:34;7.19;64.31
74873;HTU21D;68776;44.762;37.698;2023-10-13T01:00:36;7.18;64.34
74873;HTU21D;68776;44.762;37.698;2023-10-13T01:01:48;7.19;64.36
74873;HTU21D;68776;44.762;37.698;2023-10-13T01:02:54;7.16;64.37
74873;HTU21D;68776;44.762;37.698;2023-10-13T01:04:06;7.14;64.40
74873;HTU21D;68776;44.762;37.698;2023-10-13T01:05:10;7.13;64.43
74873;HTU21D;68776;44.762;37.698;2023-10-13T01:06:12;7.12;64.48
74873;HTU21D;68776;44.762;37.698;2023-10-13T01:07:14;7.09;64.51
74873;HTU21D;68776;44.762;37.698;2023-10-13T01:08:33;7.08;64.55
74873;HTU21D;68776;44.762;37.698;2023-10-13T01:09:42;7.05;64.50
74873;HTU21D;68776;44.762;37.698;2023-10-13T01:10:43;7.04;64.51
74873;HTU21D;68776;44.762;37.698;2023-10-13T01:11:48;7.07;64.53
74873;HTU21D;68776;44.762;37.698;2023-10-13T01:12:55;7.05;64.52
74873;HTU21D;68776;44.762;37.698;2023-10-13T01:13:56;7.05;64.53
74873;HTU21D;68776;44.762;37.698;2023-10-13T01:14:58;7.04;64.53
74873;HTU21D;68776;44.762;37.698;2023-10-13T01:16:00;7.04;64.56
74873;HTU21D;68776;44.762;37.698;2023-10-13T01:17:07;7.05;64.56
74873;HTU21D;68776;44.762;37.698;2023-10-13T01:18:09;7.04;64.58
74873;HTU21D;68776;44.762;37.698;2023-10-13T01:19:14;7.04;64.57
74873;HTU21D;68776;44.762;37.698;2023-10-13T01:20:17;7.04;64.56
74873;HTU21D;68776;44.762;37.698;2023-10-13T01:21:22;7.04;64.56
74873;HTU21D;68776;44.762;37.698;2023-10-13T01:22:28;7.03;64.53
74873;HTU21D;68776;44.762;37.698;2023-10-13T01:23:29;7.03;64.54
74873;HTU21D;68776;44.762;37.698;2023-10-13T01:24:38;7.02;64.55
74873;HTU21D;68776;44.762;37.698;2023-10-13T01:25:39;7.02;64.56
74873;HTU21D;68776;44.762;37.698;2023-10-13T01:26:41;7.01;64.59
74873;HTU21D;68776;44.762;37.698;2023-10-13T01:27:43;7.01;64.60
74873;HTU21D;68776;44.762;37.698;2023-10-13T01:28:57;6.99;64.65
74873;HTU21D;68776;44.762;37.698;2023-10-13T01:29:58;6.99;64.64
74873;HTU21D;68776;44.762;37.698;2023-10-13T01:31:06;7.00;64.63
74873;HTU21D;68776;44.762;37.698;2023-10-13T01:32:09;6.98;64.65
74873;HTU21D;68776;44.762;37.698;2023-10-13T01:33:13;6.98;64.68
74873;HTU21D;68776;44.762;37.698;2023-10-13T01:34:18;6.98;64.69
74873;HTU21D;68776;44.762;37.698;2023-10-13T01:35:25;6.98;64.69
74873;HTU21D;68776;44.762;37.698;2023-10-13T01:36:28;6.99;64.70
74873;HTU21D;68776;44.762;37.698;2023-10-13T01:37:29;6.98;64.70
74873;HTU21D;68776;44.762;37.698;2023-10-13T01:38:30;6.99;64.72
74873;HTU21D;68776;44.762;37.698;2023-10-13T01:39:34;7.00;64.74
74873;HTU21D;68776;44.762;37.698;2023-10-13T01:40:35;7.00;64.75
74873;HTU21D;68776;44.762;37.698;2023-10-13T01:41:37;6.99;64.77
74873;HTU21D;68776;44.762;37.698;2023-10-13T01:42:39;7.00;64.78
74873;HTU21D;68776;44.762;37.698;2023-10-13T01:43:40;7.00;64.79
74873;HTU21D;68776;44.762;37.698;2023-10-13T01:44:41;7.00;64.79
74873;HTU21D;68776;44.762;37.698;2023-10-13T01:45:42;7.00;64.79
74873;HTU21D;68776;44.762;37.698;2023-10-13T01:46:47;6.99;64.80
74873;HTU21D;68776;44.762;37.698;2023-10-13T01:47:48;7.01;64.76
74873;HTU21D;68776;44.762;37.698;2023-10-13T01:48:51;7.02;64.74
74873;HTU21D;68776;44.762;37.698;2023-10-13T01:49:55;7.04;64.70
74873;HTU21D;68776;44.762;37.698;2023-10-13T01:50:59;7.08;64.68
74873;HTU21D;68776;44.762;37.698;2023-10-13T01:52:06;7.08;64.63
74873;HTU21D;68776;44.762;37.698;2023-10-13T01:53:07;7.08;64.63
74873;HTU21D;68776;44.762;37.698;2023-10-13T01:54:14;7.08;64.64
74873;HTU21D;68776;44.762;37.698;2023-10-13T01:55:16;7.07;64.69
74873;HTU21D;68776;44.762;37.698;2023-10-13T01:56:20;7.05;64.73
74873;HTU21D;68776;44.762;37.698;2023-10-13T01:57:23;7.04;64.76
74873;HTU21D;68776;44.762;37.698;2023-10-13T01:58:24;7.04;64.78
74873;HTU21D;68776;44.762;37.698;2023-10-13T01:59:30;7.02;64.79
74873;HTU21D;68776;44.762;37.698;2023-10-13T02:00:31;7.00;64.83
74873;HTU21D;68776;44.762;37.698;2023-10-13T02:01:35;7.01;64.88
74873;HTU21D;68776;44.762;37.698;2023-10-13T02:02:36;7.01;64.88
74873;HTU21D;68776;44.762;37.698;2023-10-13T02:03:45;7.01;64.86
74873;HTU21D;68776;44.762;37.698;2023-10-13T02:04:49;7.00;64.87
74873;HTU21D;68776;44.762;37.698;2023-10-13T02:05:56;7.00;64.88
74873;HTU21D;68776;44.762;37.698;2023-10-13T02:07:04;6.99;64.89
74873;HTU21D;68776;44.762;37.698;2023-10-13T02:08:08;6.99;64.93
74873;HTU21D;68776;44.762;37.698;2023-10-13T02:09:18;6.96;64.95
74873;HTU21D;68776;44.762;37.698;2023-10-13T02:10:30;6.96;64.95
74873;HTU21D;68776;44.762;37.698;2023-10-13T02:11:32;6.96;64.96
74873;HTU21D;68776;44.762;37.698;2023-10-13T02:12:33;6.95;64.99
74873;HTU21D;68776;44.762;37.698;2023-10-13T02:13:38;6.95;65.02
74873;HTU21D;68776;44.762;37.698;2023-10-13T02:14:49;6.93;65.05
74873;HTU21D;68776;44.762;37.698;2023-10-13T02:15:55;6.91;65.11
74873;HTU21D;68776;44.762;37.698;2023-10-13T02:17:04;6.90;65.08
74873;HTU21D;68776;44.762;37.698;2023-10-13T02:18:19;6.90;65.07
74873;HTU21D;68776;44.762;37.698;2023-10-13T02:19:35;6.88;65.06
74873;HTU21D;68776;44.762;37.698;2023-10-13T02:20:36;6.88;65.08
74873;HTU21D;68776;44.762;37.698;2023-10-13T02:21:43;6.85;65.11
74873;HTU21D;68776;44.762;37.698;2023-10-13T02:22:45;6.85;65.14
74873;HTU21D;68776;44.762;37.698;2023-10-13T02:23:52;6.84;65.17
74873;HTU21D;68776;44.762;37.698;2023-10-13T02:25:05;6.83;65.17
74873;HTU21D;68776;44.762;37.698;2023-10-13T02:26:07;6.81;65.17
74873;HTU21D;68776;44.762;37.698;2023-10-13T02:27:33;6.80;65.15
74873;HTU21D;68776;44.762;37.698;2023-10-13T02:28:42;6.79;65.16
74873;HTU21D;68776;44.762;37.698;2023-10-13T02:29:44;6.79;65.17
74873;HTU21D;68776;44.762;37.698;2023-10-13T02:30:47;6.78;65.21
74873;HTU21D;68776;44.762;37.698;2023-10-13T02:31:51;6.76;65.22
74873;HTU21D;68776;44.762;37.698;2023-10-13T02:32:55;6.76;65.21
74873;HTU21D;68776;44.762;37.698;2023-10-13T02:33:57;6.75;65.23
74873;HTU21D;68776;44.762;37.698;2023-10-13T02:35:00;6.76;65.24
74873;HTU21D;68776;44.762;37.698;2023-10-13T02:36:07;6.78;65.23
74873;HTU21D;68776;44.762;37.698;2023-10-13T02:37:08;6.78;65.21
74873;HTU21D;68776;44.762;37.698;2023-10-13T02:38:10;6.79;65.21
74873;HTU21D;68776;44.762;37.698;2023-10-13T02:39:13;6.79;65.23
74873;HTU21D;68776;44.762;37.698;2023-10-13T02:40:14;6.79;65.23
74873;HTU21D;68776;44.762;37.698;2023-10-13T02:41:17;6.80;65.23
74873;HTU21D;68776;44.762;37.698;2023-10-13T02:42:41;6.81;65.17
74873;HTU21D;68776;44.762;37.698;2023-10-13T02:43:42;6.81;65.17
74873;HTU21D;68776;44.762;37.698;2023-10-13T02:44:44;6.81;65.19
74873;HTU21D;68776;44.762;37.698;2023-10-13T02:45:53;6.81;65.23
74873;HTU21D;68776;44.762;37.698;2023-10-13T02:47:00;6.83;65.18
74873;HTU21D;68776;44.762;37.698;2023-10-13T02:48:02;6.81;65.19
74873;HTU21D;68776;44.762;37.698;2023-10-13T02:49:17;6.84;65.19
74873;HTU21D;68776;44.762;37.698;2023-10-13T02:50:20;6.82;65.23
74873;HTU21D;68776;44.762;37.698;2023-10-13T02:51:25;6.82;65.25
74873;HTU21D;68776;44.762;37.698;2023-10-13T02:52:38;6.81;65.25
74873;HTU21D;68776;44.762;37.698;2023-10-13T02:53:43;6.79;65.30
74873;HTU21D;68776;44.762;37.698;2023-10-13T02:54:47;6.76;65.34
74873;HTU21D;68776;44.762;37.698;2023-10-13T02:55:52;6.74;65.40
74873;HTU21D;68776;44.762;37.698;2023-10-13T02:56:54;6.72;65.45
74873;HTU21D;68776;44.762;37.698;2023-10-13T02:57:58;6.69;65.52
74873;HTU21D;68776;44.762;37.698;2023-10-13T02:58:59;6.66;65.63
74873;HTU21D;68776;44.762;37.698;2023-10-13T03:00:06;6.60;65.76
74873;HTU21D;68776;44.762;37.698;2023-10-13T03:01:13;6.57;65.84
74873;HTU21D;68776;44.762;37.698;2023-10-13T03:02:17;6.54;65.88
74873;HTU21D;68776;44.762;37.698;2023-10-13T03:03:18;6.53;65.88
74873;HTU21D;68776;44.762;37.698;2023-10-13T03:04:20;6.54;65.85
74873;HTU21D;68776;44.762;37.698;2023-10-13T03:05:26;6.55;65.78
74873;HTU21D;68776;44.762;37.698;2023-10-13T03:06:32;6.58;65.70
74873;HTU21D;68776;44.762;37.698;2023-10-13T03:07:34;6.61;65.60
74873;HTU21D;68776;44.762;37.698;2023-10-13T03:08:37;6.66;65.52
74873;HTU21D;68776;44.762;37.698;2023-10-13T03:09:38;6.69;65.43
74873;HTU21D;68776;44.762;37.698;2023-10-13T03:10:40;6.73;65.35
74873;HTU21D;68776;44.762;37.698;2023-10-13T03:11:48;6.78;65.24
74873;HTU21D;68776;44.762;37.698;2023-10-13T03:12:50;6.81;65.17
74873;HTU21D;68776;44.762;37.698;2023-10-13T03:13:52;6.85;65.11
74873;HTU21D;68776;44.762;37.698;2023-10-13T03:14:53;6.86;65.07
74873;HTU21D;68776;44.762;37.698;2023-10-13T03:16:15;6.93;64.96
74873;HTU21D;68776;44.762;37.698;2023-10-13T03:17:16;6.96;64.89
74873;HTU21D;68776;44.762;37.698;2023-10-13T03:18:19;7.01;64.84
74873;HTU21D;68776;44.762;37.698;2023-10-13T03:19:20;7.02;64.82
74873;HTU21D;68776;44.762;37.698;2023-10-13T03:20:22;7.04;64.82
74873;HTU21D;68776;44.762;37.698;2023-10-13T03:21:25;7.07;64.84
74873;HTU21D;68776;44.762;37.698;2023-10-13T03:22:30;7.04;64.89
74873;HTU21D;68776;44.762;37.698;2023-10-13T03:23:32;7.04;64.96
74873;HTU21D;68776;44.762;37.698;2023-10-13T03:24:46;7.03;65.01
74873;HTU21D;68776;44.762;37.698;2023-10-13T03:25:48;7.02;65.08
74873;HTU21D;68776;44.762;37.698;2023-10-13T03:26:56;7.02;65.13
74873;HTU21D;68776;44.762;37.698;2023-10-13T03:27:57;7.00;65.21
74873;HTU21D;68776;44.762;37.698;2023-10-13T03:28:59;6.98;65.26
74873;HTU21D;68776;44.762;37.698;2023-10-13T03:29:59;6.97;65.32
74873;HTU21D;68776;44.762;37.698;2023-10-13T03:31:01;6.95;65.39
74873;HTU21D;68776;44.762;37.698;2023-10-13T03:32:03;6.96;65.43
74873;HTU21D;68776;44.762;37.698;2023-10-13T03:33:09;6.93;65.49
74873;HTU21D;68776;44.762;37.698;2023-10-13T03:34:12;6.93;65.53
74873;HTU21D;68776;44.762;37.698;2023-10-13T03:35:14;6.91;65.56
74873;HTU21D;68776;44.762;37.698;2023-10-13T03:36:38;6.90;65.56
74873;HTU21D;68776;44.762;37.698;2023-10-13T03:37:58;6.87;65.55
74873;HTU21D;68776;44.762;37.698;2023-10-13T03:38:59;6.87;65.58
74873;HTU21D;68776;44.762;37.698;2023-10-13T03:40:00;6.88;65.59
74873;HTU21D;68776;44.762;37.698;2023-10-13T03:41:00;6.88;65.57
74873;HTU21D;68776;44.762;37.698;2023-10-13T03:42:22;6.89;65.52
74873;HTU21D;68776;44.762;37.698;2023-10-13T03:43:23;6.89;65.53
74873;HTU21D;68776;44.762;37.698;2023-10-13T03:44:24;6.90;65.54
74873;HTU21D;68776;44.762;37.698;2023-10-13T03:45:41;6.93;65.51
74873;HTU21D;68776;44.762;37.698;2023-10-13T03:46:44;6.93;65.49
74873;HTU21D;68776;44.762;37.698;2023-10-13T03:47:48;6.93;65.50
74873;HTU21D;68776;44.762;37.698;2023-10-13T03:48:52;6.95;65.46
74873;HTU21D;68776;44.762;37.698;2023-10-13T03:49:56;6.97;65.43
74873;HTU21D;68776;44.762;37.698;2023-10-13T03:51:15;6.97;65.37
74873;HTU21D;68776;44.762;37.698;2023-10-13T03:52:16;6.97;65.42
74873;HTU21D;68776;44.762;37.698;2023-10-13T03:53:23;6.97;65.43
74873;HTU21D;68776;44.762;37.698;2023-10-13T03:54:26;6.97;65.45
74873;HTU21D;68776;44.762;37.698;2023-10-13T03:55:30;6.97;65.50
74873;HTU21D;68776;44.762;37.698;2023-10-13T03:56:35;6.97;65.54
74873;HTU21D;68776;44.762;37.698;2023-10-13T03:57:39;6.97;65.56
74873;HTU21D;68776;44.762;37.698;2023-10-13T03:58:41;6.97;65.56
74873;HTU21D;68776;44.762;37.698;2023-10-13T03:59:49;6.99;65.55
74873;HTU21D;68776;44.762;37.698;2023-10-13T04:00:50;7.00;65.53
74873;HTU21D;68776;44.762;37.698;2023-10-13T04:01:51;7.02;65.52
74873;HTU21D;68776;44.762;37.698;2023-10-13T04:02:52;7.04;65.48
74873;HTU21D;68776;44.762;37.698;2023-10-13T04:04:17;7.08;65.41
74873;HTU21D;68776;44.762;37.698;2023-10-13T04:05:41;7.10;65.33
74873;HTU21D;68776;44.762;37.698;2023-10-13T04:06:47;7.11;65.31
74873;HTU21D;68776;44.762;37.698;2023-10-13T04:07:48;7.14;65.30
74873;HTU21D;68776;44.762;37.698;2023-10-13T04:09:07;7.15;65.26
74873;HTU21D;68776;44.762;37.698;2023-10-13T04:10:27;7.18;65.19
74873;HTU21D;68776;44.762;37.698;2023-10-13T04:11:46;7.22;65.11
74873;HTU21D;68776;44.762;37.698;2023-10-13T04:13:10;7.25;65.04
74873;HTU21D;68776;44.762;37.698;2023-10-13T04:14:38;7.26;65.01
74873;HTU21D;68776;44.762;37.698;2023-10-13T04:15:58;7.26;64.98
74873;HTU21D;68776;44.762;37.698;2023-10-13T04:17:35;7.29;64.91
74873;HTU21D;68776;44.762;37.698;2023-10-13T04:18:41;7.32;64.88
74873;HTU21D;68776;44.762;37.698;2023-10-13T04:20:08;7.37;64.79
74873;HTU21D;68776;44.762;37.698;2023-10-13T04:21:10;7.41;64.75
74873;HTU21D;68776;44.762;37.698;2023-10-13T04:22:35;7.50;64.58
74873;HTU21D;68776;44.762;37.698;2023-10-13T04:23:49;7.60;64.33
74873;HTU21D;68776;44.762;37.698;2023-10-13T04:25:08;7.71;64.11
74873;HTU21D;68776;44.762;37.698;2023-10-13T04:26:29;7.81;63.93
74873;HTU21D;68776;44.762;37.698;2023-10-13T04:27:38;7.87;63.85
74873;HTU21D;68776;44.762;37.698;2023-10-13T04:28:54;7.91;63.78
74873;HTU21D;68776;44.762;37.698;2023-10-13T04:29:58;7.98;63.76
74873;HTU21D;68776;44.762;37.698;2023-10-13T04:31:07;8.02;63.73
74873;HTU21D;68776;44.762;37.698;2023-10-13T04:32:25;8.08;63.68
74873;HTU21D;68776;44.762;37.698;2023-10-13T04:33:39;8.15;63.63
74873;HTU21D;68776;44.762;37.698;2023-10-13T04:34:53;8.19;63.60
74873;HTU21D;68776;44.762;37.698;2023-10-13T04:36:03;8.26;63.57
74873;HTU21D;68776;44.762;37.698;2023-10-13T04:37:22;8.33;63.49
74873;HTU21D;68776;44.762;37.698;2023-10-13T04:38:29;8.38;63.47
74873;HTU21D;68776;44.762;37.698;2023-10-13T04:39:50;8.45;63.40
74873;HTU21D;68776;44.762;37.698;2023-10-13T04:40:58;8.49;63.37
74873;HTU21D;68776;44.762;37.698;2023-10-13T04:42:02;8.55;63.37
74873;HTU21D;68776;44.762;37.698;2023-10-13T04:43:14;8.61;63.34
74873;HTU21D;68776;44.762;37.698;2023-10-13T04:44:33;8.64;63.31
74873;HTU21D;68776;44.762;37.698;2023-10-13T04:45:53;8.71;63.28
74873;HTU21D;68776;44.762;37.698;2023-10-13T04:47:00;8.74;63.30
74873;HTU21D;68776;44.762;37.698;2023-10-13T04:48:01;8.77;63.34
74873;HTU21D;68776;44.762;37.698;2023-10-13T04:49:21;8.81;63.34
74873;HTU21D;68776;44.762;37.698;2023-10-13T04:50:43;8.88;63.29
74873;HTU21D;68776;44.762;37.698;2023-10-13T04:51:47;8.91;63.26
74873;HTU21D;68776;44.762;37.698;2023-10-13T04:52:59;8.97;63.22
74873;HTU21D;68776;44.762;37.698;2023-10-13T04:54:03;9.04;63.21
74873;HTU21D;68776;44.762;37.698;2023-10-13T04:55:27;9.09;63.15
74873;HTU21D;68776;44.762;37.698;2023-10-13T04:56:48;9.15;63.10
74873;HTU21D;68776;44.762;37.698;2023-10-13T04:58:08;9.20;63.05
74873;HTU21D;68776;44.762;37.698;2023-10-13T04:59:15;9.25;63.03
74873;HTU21D;68776;44.762;37.698;2023-10-13T05:00:18;9.32;62.98
74873;HTU21D;68776;44.762;37.698;2023-10-13T05:01:19;9.37;62.98
74873;HTU21D;68776;44.762;37.698;2023-10-13T05:02:26;9.42;62.88
74873;HTU21D;68776;44.762;37.698;2023-10-13T05:03:36;9.49;62.67
74873;HTU21D;68776;44.762;37.698;2023-10-13T05:05:15;9.54;62.53
74873;HTU21D;68776;44.762;37.698;2023-10-13T05:06:19;9.61;62.46
74873;HTU21D;68776;44.762;37.698;2023-10-13T05:07:39;9.65;62.45
74873;HTU21D;68776;44.762;37.698;2023-10-13T05:08:59;9.71;62.43
74873;HTU21D;68776;44.762;37.698;2023-10-13T05:10:19;9.78;62.38
74873;HTU21D;68776;44.762;37.698;2023-10-13T05:11:39;9.84;62.34
74873;HTU21D;68776;44.762;37.698;2023-10-13T05:12:58;9.92;62.31
74873;HTU21D;68776;44.762;37.698;2023-10-13T05:14:17;9.98;62.24
74873;HTU21D;68776;44.762;37.698;2023-10-13T05:15:44;10.07;62.21
74873;HTU21D;68776;44.762;37.698;2023-10-13T05:17:03;10.14;62.13
74873;HTU21D;68776;44.762;37.698;2023-10-13T05:18:23;10.18;62.12
74873;HTU21D;68776;44.762;37.698;2023-10-13T05:19:42;10.23;62.12
74873;HTU21D;68776;44.762;37.698;2023-10-13T05:21:01;10.28;62.13
74873;HTU21D;68776;44.762;37.698;2023-10-13T05:22:20;10.34;62.12
74873;HTU21D;68776;44.762;37.698;2023-10-13T05:23:39;10.39;62.12
74873;HTU21D;68776;44.762;37.698;2023-10-13T05:24:59;10.44;62.11
74873;HTU21D;68776;44.762;37.698;2023-10-13T05:26:18;10.50;62.09
74873;HTU21D;68776;44.762;37.698;2023-10-13T05:27:45;10.57;62.05
74873;HTU21D;68776;44.762;37.698;2023-10-13T05:29:05;10.65;62.00
74873;HTU21D;68776;44.762;37.698;2023-10-13T05:30:24;10.71;61.96
74873;HTU21D;68776;44.762;37.698;2023-10-13T05:31:43;10.79;61.92
74873;HTU21D;68776;44.762;37.698;2023-10-13T05:33:03;10.87;61.85
74873;HTU21D;68776;44.762;37.698;2023-10-13T05:34:22;10.97;61.73
74873;HTU21D;68776;44.762;37.698;2023-10-13T05:35:43;11.07;61.64
74873;HTU21D;68776;44.762;37.698;2023-10-13T05:37:03;11.15;61.57
74873;HTU21D;68776;44.762;37.698;2023-10-13T05:38:22;11.25;61.51
74873;HTU21D;68776;44.762;37.698;2023-10-13T05:39:42;11.30;61.48
74873;HTU21D;68776;44.762;37.698;2023-10-13T05:41:03;11.39;61.45
74873;HTU21D;68776;44.762;37.698;2023-10-13T05:42:23;11.45;61.43
74873;HTU21D;68776;44.762;37.698;2023-10-13T05:43:43;11.53;61.38
74873;HTU21D;68776;44.762;37.698;2023-10-13T05:45:03;11.60;61.36
74873;HTU21D;68776;44.762;37.698;2023-10-13T05:46:19;11.68;61.31
74873;HTU21D;68776;44.762;37.698;2023-10-13T05:47:25;11.74;61.32
74873;HTU21D;68776;44.762;37.698;2023-10-13T05:48:41;11.85;61.26
74873;HTU21D;68776;44.762;37.698;2023-10-13T05:50:00;11.94;61.18
74873;HTU21D;68776;44.762;37.698;2023-10-13T05:51:14;12.03;61.12
74873;HTU21D;68776;44.762;37.698;2023-10-13T05:52:33;12.13;61.09
74873;HTU21D;68776;44.762;37.698;2023-10-13T05:54:06;12.21;61.03
74873;HTU21D;68776;44.762;37.698;2023-10-13T05:55:10;12.27;61.05
74873;HTU21D;68776;44.762;37.698;2023-10-13T05:56:29;12.33;60.99
74873;HTU21D;68776;44.762;37.698;2023-10-13T05:57:49;12.42;60.79
74873;HTU21D;68776;44.762;37.698;2023-10-13T05:59:08;12.48;60.62
74873;HTU21D;68776;44.762;37.698;2023-10-13T06:00:27;12.55;60.44
74873;HTU21D;68776;44.762;37.698;2023-10-13T06:01:46;12.63;60.27
74873;HTU21D;68776;44.762;37.698;2023-10-13T06:03:06;12.74;60.09
74873;HTU21D;68776;44.762;37.698;2023-10-13T06:04:25;12.80;59.94
74873;HTU21D;68776;44.762;37.698;2023-10-13T06:05:44;12.88;59.83
74873;HTU21D;68776;44.762;37.698;2023-10-13T06:07:23;12.95;59.72
74873;HTU21D;68776;44.762;37.698;2023-10-13T06:08:42;13.04;59.60
74873;HTU21D;68776;44.762;37.698;2023-10-13T06:10:12;13.14;59.49
74873;HTU21D;68776;44.762;37.698;2023-10-13T06:11:31;13.18;59.41
74873;HTU21D;68776;44.762;37.698;2023-10-13T06:12:51;13.24;59.34
74873;HTU21D;68776;44.762;37.698;2023-10-13T06:14:10;13.32;59.25
74873;HTU21D;68776;44.762;37.698;2023-10-13T06:15:29;13.38;59.18
74873;HTU21D;68776;44.762;37.698;2023-10-13T06:16:48;13.47;59.09
74873;HTU21D;68776;44.762;37.698;2023-10-13T06:18:07;13.54;59.03
74873;HTU21D;68776;44.762;37.698;2023-10-13T06:19:27;13.61;58.91
74873;HTU21D;68776;44.762;37.698;2023-10-13T06:20:46;13.70;58.80
74873;HTU21D;68776;44.762;37.698;2023-10-13T06:22:06;13.81;58.67
74873;HTU21D;68776;44.762;37.698;2023-10-13T06:23:25;13.88;58.59
74873;HTU21D;68776;44.762;37.698;2023-10-13T06:24:45;13.94;58.51
74873;HTU21D;68776;44.762;37.698;2023-10-13T06:26:04;14.00;58.47
74873;HTU21D;68776;44.762;37.698;2023-10-13T06:27:23;14.09;58.38
74873;HTU21D;68776;44.762;37.698;2023-10-13T06:28:42;14.18;58.29
74873;HTU21D;68776;44.762;37.698;2023-10-13T06:29:44;14.23;58.25
74873;HTU21D;68776;44.762;37.698;2023-10-13T06:30:58;14.28;58.20
74873;HTU21D;68776;44.762;37.698;2023-10-13T06:32:01;14.35;58.17
74873;HTU21D;68776;44.762;37.698;2023-10-13T06:33:02;14.41;58.08
74873;HTU21D;68776;44.762;37.698;2023-10-13T06:34:05;14.48;58.00
74873;HTU21D;68776;44.762;37.698;2023-10-13T06:35:06;14.53;57.95
74873;HTU21D;68776;44.762;37.698;2023-10-13T06:36:19;14.60;57.89
74873;HTU21D;68776;44.762;37.698;2023-10-13T06:37:20;14.67;57.84
74873;HTU21D;68776;44.762;37.698;2023-10-13T06:38:23;14.73;57.75
74873;HTU21D;68776;44.762;37.698;2023-10-13T06:39:24;14.81;57.70
74873;HTU21D;68776;44.762;37.698;2023-10-13T06:40:37;14.87;57.61
74873;HTU21D;68776;44.762;37.698;2023-10-13T06:41:42;14.96;57.55
74873;HTU21D;68776;44.762;37.698;2023-10-13T06:42:44;15.02;57.48
74873;HTU21D;68776;44.762;37.698;2023-10-13T06:43:45;15.09;57.40
74873;HTU21D;68776;44.762;37.698;2023-10-13T06:44:46;15.17;57.32
74873;HTU21D;68776;44.762;37.698;2023-10-13T06:45:47;15.25;57.23
74873;HTU21D;68776;44.762;37.698;2023-10-13T06:47:00;15.33;57.16
74873;HTU21D;68776;44.762;37.698;2023-10-13T06:48:07;15.41;57.08
74873;HTU21D;68776;44.762;37.698;2023-10-13T06:49:12;15.47;57.03
74873;HTU21D;68776;44.762;37.698;2023-10-13T06:50:15;15.53;56.98
74873;HTU21D;68776;44.762;37.698;2023-10-13T06:51:16;15.59;56.94
74873;HTU21D;68776;44.762;37.698;2023-10-13T06:52:23;15.68;56.82
74873;HTU21D;68776;44.762;37.698;2023-10-13T06:53:30;15.80;57.08
74873;HTU21D;68776;44.762;37.698;2023-10-13T06:54:31;15.90;57.29
74873;HTU21D;68776;44.762;37.698;2023-10-13T06:55:37;16.00;57.46
74873;HTU21D;68776;44.762;37.698;2023-10-13T06:56:40;16.12;57.55
74873;HTU21D;68776;44.762;37.698;2023-10-13T06:57:41;16.18;57.59
74873;HTU21D;68776;44.762;37.698;2023-10-13T06:58:45;16.27;57.56
74873;HTU21D;68776;44.762;37.698;2023-10-13T06:59:48;16.40;57.52
74873;HTU21D;68776;44.762;37.698;2023-10-13T07:00:50;16.52;57.51
74873;HTU21D;68776;44.762;37.698;2023-10-13T07:01:53;16.63;57.38
74873;HTU21D;68776;44.762;37.698;2023-10-13T07:02:55;16.76;57.21
74873;HTU21D;68776;44.762;37.698;2023-10-13T07:04:09;16.89;57.14
74873;HTU21D;68776;44.762;37.698;2023-10-13T07:05:16;16.98;57.08